createdAt,value
2019-03-24T00:00:38.392Z,10.89
2019-03-24T00:01:41.408Z,10.86
2019-03-24T00:02:38.521Z,10.92
2019-03-24T00:03:38.589Z,10.86
2019-03-24T00:04:38.657Z,10.90
2019-03-24T00:05:38.706Z,10.96
2019-03-24T00:06:38.770Z,10.97
2019-03-24T00:07:38.828Z,10.97
2019-03-24T00:08:38.900Z,10.89
2019-03-24T00:09:38.961Z,10.96
2019-03-24T00:10:39.017Z,10.87
2019-03-24T00:11:39.077Z,10.93
2019-03-24T00:12:39.143Z,10.87
2019-03-24T00:13:39.542Z,10.86
2019-03-24T00:14:39.265Z,10.86
2019-03-24T00:15:39.325Z,10.79
2019-03-24T00:16:39.389Z,10.86
2019-03-24T00:17:39.449Z,10.76
2019-03-24T00:18:39.509Z,10.84
2019-03-24T00:19:39.585Z,10.81
2019-03-24T00:20:39.642Z,10.78
2019-03-24T00:21:39.697Z,10.78
2019-03-24T00:22:39.765Z,10.75
2019-03-24T00:23:39.817Z,10.71
2019-03-24T00:24:39.893Z,10.74
2019-03-24T00:25:40.010Z,10.67
2019-03-24T00:26:40.009Z,10.75
2019-03-24T00:27:40.069Z,10.71
2019-03-24T00:28:40.133Z,10.68
2019-03-24T00:29:40.214Z,10.69
2019-03-24T00:30:40.258Z,10.67
2019-03-24T00:31:40.319Z,10.72
2019-03-24T00:32:40.382Z,10.71
2019-03-24T00:33:40.442Z,10.71
2019-03-24T00:34:40.514Z,10.69
2019-03-24T00:35:40.576Z,10.71
2019-03-24T00:36:40.630Z,10.72
2019-03-24T00:37:40.686Z,10.67
2019-03-24T00:38:40.770Z,10.63
2019-03-24T00:39:40.822Z,10.61
2019-03-24T00:40:40.893Z,10.60
2019-03-24T00:41:40.969Z,10.60
2019-03-24T00:42:41.002Z,10.60
2019-03-24T00:43:41.062Z,10.56
2019-03-24T00:44:41.230Z,10.56
2019-03-24T00:45:41.188Z,10.56
2019-03-24T00:46:41.250Z,10.53
2019-03-24T00:47:41.311Z,10.49
2019-03-24T00:48:41.370Z,10.54
2019-03-24T00:49:41.443Z,10.53
2019-03-24T00:50:41.506Z,10.49
2019-03-24T00:51:41.564Z,10.49
2019-03-24T00:52:41.626Z,10.46
2019-03-24T00:53:41.683Z,10.49
2019-03-24T00:54:41.752Z,10.53
2019-03-24T00:55:41.815Z,10.44
2019-03-24T00:56:41.869Z,10.44
2019-03-24T00:57:41.930Z,10.41
2019-03-24T00:58:41.996Z,10.49
2019-03-24T00:59:42.064Z,10.41
2019-03-24T01:00:42.124Z,10.46
2019-03-24T01:01:42.179Z,10.44
2019-03-24T01:02:42.239Z,10.35
2019-03-24T01:03:42.315Z,10.38
2019-03-24T01:04:42.375Z,10.34
2019-03-24T01:05:42.444Z,10.37
2019-03-24T01:06:42.491Z,10.42
2019-03-24T01:07:42.551Z,10.41
2019-03-24T01:08:42.612Z,10.35
2019-03-24T01:09:42.683Z,10.44
2019-03-24T01:10:42.743Z,10.42
2019-03-24T01:11:42.801Z,10.41
2019-03-24T01:12:42.867Z,10.46
2019-03-24T01:13:42.926Z,10.41
2019-03-24T01:14:42.992Z,10.41
2019-03-24T01:15:47.610Z,10.40
2019-03-24T01:16:43.110Z,10.44
2019-03-24T01:17:43.173Z,10.35
2019-03-24T01:18:43.232Z,10.34
2019-03-24T01:19:43.312Z,10.34
2019-03-24T01:20:43.356Z,10.35
2019-03-24T01:21:43.416Z,10.40
2019-03-24T01:22:43.480Z,10.38
2019-03-24T01:23:43.540Z,10.44
2019-03-24T01:24:43.612Z,10.33
2019-03-24T01:25:43.672Z,10.35
2019-03-24T01:26:43.729Z,10.41
2019-03-24T01:27:43.788Z,10.38
2019-03-24T01:28:43.850Z,10.37
2019-03-24T01:29:43.924Z,10.34
2019-03-24T01:30:43.981Z,10.31
2019-03-24T01:31:44.042Z,10.40
2019-03-24T01:32:44.097Z,10.33
2019-03-24T01:33:44.161Z,10.37
2019-03-24T01:34:44.237Z,10.33
2019-03-24T01:35:44.285Z,10.31
2019-03-24T01:36:44.389Z,10.33
2019-03-24T01:37:44.408Z,10.35
2019-03-24T01:38:44.469Z,10.35
2019-03-24T01:39:44.542Z,10.37
2019-03-24T01:40:44.601Z,10.30
2019-03-24T01:41:44.660Z,10.33
2019-03-24T01:42:44.717Z,10.35
2019-03-24T01:43:44.773Z,10.35
2019-03-24T01:44:44.849Z,10.33
2019-03-24T01:45:44.911Z,10.30
2019-03-24T01:46:44.971Z,10.33
2019-03-24T01:47:45.025Z,10.25
2019-03-24T01:48:45.089Z,10.33
2019-03-24T01:49:45.150Z,10.35
2019-03-24T01:50:45.553Z,10.25
2019-03-24T01:51:45.274Z,10.38
2019-03-24T01:52:45.338Z,10.33
2019-03-24T01:53:45.394Z,10.31
2019-03-24T01:54:45.458Z,10.31
2019-03-24T01:55:45.529Z,10.20
2019-03-24T01:56:45.678Z,10.22
2019-03-24T01:57:45.695Z,10.33
2019-03-24T01:58:45.706Z,10.25
2019-03-24T01:59:45.766Z,10.19
2019-03-24T02:00:45.830Z,10.25
2019-03-24T02:01:45.898Z,10.25
2019-03-24T02:02:45.962Z,10.20
2019-03-24T02:03:46.019Z,10.28
2019-03-24T02:04:46.078Z,10.20
2019-03-24T02:05:46.141Z,10.20
2019-03-24T02:06:46.290Z,10.19
2019-03-24T02:07:46.263Z,10.30
2019-03-24T02:08:46.322Z,10.25
2019-03-24T02:09:46.386Z,10.25
2019-03-24T02:10:46.453Z,10.30
2019-03-24T02:11:46.515Z,10.28
2019-03-24T02:12:46.579Z,10.20
2019-03-24T02:13:46.634Z,10.25
2019-03-24T02:14:46.695Z,10.22
2019-03-24T02:15:46.755Z,10.19
2019-03-24T02:16:46.828Z,10.23
2019-03-24T02:17:46.887Z,10.25
2019-03-24T02:18:46.947Z,10.25
2019-03-24T02:19:47.004Z,10.31
2019-03-24T02:20:47.073Z,10.19
2019-03-24T02:21:47.152Z,10.13
2019-03-24T02:22:47.193Z,10.16
2019-03-24T02:23:47.255Z,10.12
2019-03-24T02:24:47.316Z,10.16
2019-03-24T02:25:47.379Z,10.19
2019-03-24T02:26:47.442Z,10.10
2019-03-24T02:27:47.505Z,10.07
2019-03-24T02:28:47.557Z,10.19
2019-03-24T02:29:47.623Z,10.10
2019-03-24T02:30:47.684Z,10.09
2019-03-24T02:31:47.752Z,10.12
2019-03-24T02:32:47.817Z,10.15
2019-03-24T02:33:47.873Z,10.15
2019-03-24T02:34:47.934Z,10.15
2019-03-24T02:35:47.992Z,10.10
2019-03-24T02:36:48.064Z,10.04
2019-03-24T02:37:48.215Z,10.12
2019-03-24T02:38:48.186Z,10.04
2019-03-24T02:39:48.241Z,10.05
2019-03-24T02:40:48.304Z,10.05
2019-03-24T02:41:48.365Z,10.09
2019-03-24T02:42:48.432Z,10.10
2019-03-24T02:43:48.513Z,10.12
2019-03-24T02:44:48.549Z,10.10
2019-03-24T02:45:48.613Z,10.04
2019-03-24T02:46:48.673Z,10.01
2019-03-24T02:47:48.747Z,9.98
2019-03-24T02:48:48.805Z,9.99
2019-03-24T02:49:48.867Z,10.02
2019-03-24T02:50:48.921Z,9.99
2019-03-24T02:51:48.985Z,9.98
2019-03-24T02:52:49.047Z,9.99
2019-03-24T02:53:49.136Z,10.01
2019-03-24T02:54:49.169Z,9.99
2019-03-24T02:55:49.232Z,9.92
2019-03-24T02:56:49.292Z,9.94
2019-03-24T02:57:49.361Z,9.91
2019-03-24T02:58:49.476Z,9.94
2019-03-24T02:59:49.499Z,9.94
2019-03-24T03:00:49.561Z,9.86
2019-03-24T03:01:49.606Z,9.91
2019-03-24T03:02:49.669Z,9.87
2019-03-24T03:03:49.753Z,9.86
2019-03-24T03:04:49.800Z,9.83
2019-03-24T03:05:49.851Z,9.86
2019-03-24T03:06:49.919Z,9.87
2019-03-24T03:07:49.976Z,9.87
2019-03-24T03:08:50.066Z,9.87
2019-03-24T03:09:50.106Z,9.86
2019-03-24T03:10:50.163Z,9.82
2019-03-24T03:11:50.222Z,9.86
2019-03-24T03:12:50.286Z,9.84
2019-03-24T03:13:50.366Z,9.83
2019-03-24T03:14:50.418Z,9.86
2019-03-24T03:15:50.471Z,9.83
2019-03-24T03:16:50.536Z,9.80
2019-03-24T03:17:50.595Z,9.87
2019-03-24T03:18:50.682Z,9.82
2019-03-24T03:19:53.550Z,9.80
2019-03-24T03:20:50.779Z,9.84
2019-03-24T03:21:50.842Z,9.84
2019-03-24T03:22:50.903Z,9.83
2019-03-24T03:23:50.978Z,9.80
2019-03-24T03:24:51.036Z,9.79
2019-03-24T03:25:51.092Z,9.76
2019-03-24T03:26:51.151Z,9.80
2019-03-24T03:27:51.220Z,9.76
2019-03-24T03:28:51.440Z,9.77
2019-03-24T03:29:51.356Z,9.83
2019-03-24T03:30:51.601Z,9.76
2019-03-24T03:31:51.468Z,9.80
2019-03-24T03:32:51.541Z,9.76
2019-03-24T03:33:51.606Z,9.76
2019-03-24T03:34:51.656Z,9.76
2019-03-24T03:35:51.713Z,9.74
2019-03-24T03:36:51.774Z,9.72
2019-03-24T03:37:51.843Z,9.69
2019-03-24T03:38:51.917Z,9.72
2019-03-24T03:39:57.319Z,9.72
2019-03-24T03:40:52.045Z,9.66
2019-03-24T03:41:52.081Z,9.62
2019-03-24T03:42:52.156Z,9.64
2019-03-24T03:43:52.205Z,9.74
2019-03-24T03:44:52.280Z,9.62
2019-03-24T03:45:52.329Z,9.66
2019-03-24T03:46:53.412Z,9.64
2019-03-24T03:47:52.459Z,9.65
2019-03-24T03:48:52.532Z,9.68
2019-03-24T03:49:52.585Z,9.66
2019-03-24T03:50:52.643Z,9.64
2019-03-24T03:51:52.696Z,9.62
2019-03-24T03:52:52.763Z,9.64
2019-03-24T03:53:52.828Z,9.69
2019-03-24T03:54:52.892Z,9.68
2019-03-24T03:55:52.954Z,9.66
2019-03-24T03:56:53.008Z,9.64
2019-03-24T03:57:53.069Z,9.61
2019-03-24T03:58:53.143Z,9.61
2019-03-24T03:59:53.307Z,9.62
2019-03-24T04:00:53.257Z,9.62
2019-03-24T04:01:53.317Z,9.64
2019-03-24T04:02:53.377Z,9.58
2019-03-24T04:03:53.457Z,9.65
2019-03-24T04:04:53.511Z,9.62
2019-03-24T04:05:53.575Z,9.62
2019-03-24T04:06:53.625Z,9.66
2019-03-24T04:07:53.691Z,9.68
2019-03-24T04:08:53.761Z,9.66
2019-03-24T04:09:53.818Z,9.61
2019-03-24T04:10:53.882Z,9.61
2019-03-24T04:11:53.932Z,9.64
2019-03-24T04:12:53.997Z,9.64
2019-03-24T04:13:54.065Z,9.66
2019-03-24T04:14:54.214Z,9.65
2019-03-24T04:15:54.186Z,9.56
2019-03-24T04:17:06.230Z,9.59
2019-03-24T04:17:54.307Z,9.64
2019-03-24T04:18:54.371Z,9.55
2019-03-24T04:19:54.439Z,9.61
2019-03-24T04:20:54.497Z,9.64
2019-03-24T04:21:54.558Z,9.58
2019-03-24T04:22:54.614Z,9.56
2019-03-24T04:23:54.682Z,9.55
2019-03-24T04:24:54.746Z,9.51
2019-03-24T04:25:54.810Z,9.51
2019-03-24T04:26:54.862Z,9.56
2019-03-24T04:27:54.931Z,9.55
2019-03-24T04:28:54.992Z,9.50
2019-03-24T04:29:55.059Z,9.51
2019-03-24T04:30:55.119Z,9.56
2019-03-24T04:31:55.170Z,9.47
2019-03-24T04:32:55.238Z,9.55
2019-03-24T04:33:55.294Z,9.55
2019-03-24T04:34:55.362Z,9.58
2019-03-24T04:35:55.426Z,9.61
2019-03-24T04:36:55.478Z,9.48
2019-03-24T04:37:55.567Z,9.62
2019-03-24T04:38:55.615Z,9.54
2019-03-24T04:39:55.674Z,9.50
2019-03-24T04:40:55.734Z,9.54
2019-03-24T04:41:55.790Z,9.50
2019-03-24T04:42:55.851Z,9.48
2019-03-24T04:43:55.929Z,9.48
2019-03-24T04:44:55.982Z,9.47
2019-03-24T04:45:56.043Z,9.51
2019-03-24T04:46:56.099Z,9.47
2019-03-24T04:47:56.158Z,9.47
2019-03-24T04:48:56.234Z,9.44
2019-03-24T04:49:56.323Z,9.48
2019-03-24T04:50:56.346Z,9.44
2019-03-24T04:51:56.407Z,9.50
2019-03-24T04:52:56.467Z,9.43
2019-03-24T04:53:56.532Z,9.36
2019-03-24T04:54:56.599Z,9.44
2019-03-24T04:55:56.659Z,9.44
2019-03-24T04:56:56.715Z,9.44
2019-03-24T04:57:56.779Z,9.48
2019-03-24T04:58:56.839Z,9.48
2019-03-24T04:59:56.911Z,9.47
2019-03-24T05:00:56.977Z,9.51
2019-03-24T05:01:57.024Z,9.48
2019-03-24T05:02:57.087Z,9.46
2019-03-24T05:03:57.191Z,9.54
2019-03-24T05:04:57.237Z,9.48
2019-03-24T05:05:57.283Z,9.43
2019-03-24T05:06:57.335Z,9.47
2019-03-24T05:07:57.399Z,9.43
2019-03-24T05:08:57.470Z,9.43
2019-03-24T05:09:57.531Z,9.44
2019-03-24T05:10:57.588Z,9.39
2019-03-24T05:11:57.644Z,9.40
2019-03-24T05:12:57.704Z,9.41
2019-03-24T05:13:57.772Z,9.37
2019-03-24T05:14:57.838Z,9.41
2019-03-24T05:15:57.896Z,9.39
2019-03-24T05:16:57.953Z,9.34
2019-03-24T05:17:58.018Z,9.32
2019-03-24T05:18:58.090Z,9.31
2019-03-24T05:19:58.149Z,9.36
2019-03-24T05:20:58.204Z,9.31
2019-03-24T05:21:58.265Z,9.32
2019-03-24T05:22:58.324Z,9.26
2019-03-24T05:23:58.397Z,9.28
2019-03-24T05:24:58.456Z,9.26
2019-03-24T05:25:58.517Z,9.36
2019-03-24T05:26:58.573Z,9.25
2019-03-24T05:27:58.636Z,9.22
2019-03-24T05:28:58.697Z,9.26
2019-03-24T05:29:58.766Z,9.21
2019-03-24T05:30:58.825Z,9.21
2019-03-24T05:31:58.881Z,9.21
2019-03-24T05:32:58.941Z,9.29
2019-03-24T05:33:59.006Z,9.21
2019-03-24T05:34:59.077Z,9.28
2019-03-24T05:35:59.133Z,9.26
2019-03-24T05:36:59.189Z,9.26
2019-03-24T05:37:59.250Z,9.28
2019-03-24T05:38:59.326Z,9.23
2019-03-24T05:39:59.382Z,9.25
2019-03-24T05:40:59.441Z,9.26
2019-03-24T05:41:59.502Z,9.23
2019-03-24T05:42:59.557Z,9.22
2019-03-24T05:43:59.623Z,9.18
2019-03-24T05:44:59.690Z,9.22
2019-03-24T05:45:59.754Z,9.22
2019-03-24T05:46:59.805Z,9.21
2019-03-24T05:47:59.872Z,9.28
2019-03-24T05:48:59.942Z,9.31
2019-03-24T05:50:00.001Z,9.19
2019-03-24T05:51:00.061Z,9.25
2019-03-24T05:52:00.114Z,9.29
2019-03-24T05:53:00.175Z,9.21
2019-03-24T05:54:00.242Z,9.25
2019-03-24T05:55:00.397Z,9.23
2019-03-24T05:56:00.462Z,9.29
2019-03-24T05:57:00.423Z,9.21
2019-03-24T05:58:00.486Z,9.25
2019-03-24T05:59:00.550Z,9.23
2019-03-24T06:00:00.617Z,9.21
2019-03-24T06:01:00.681Z,9.23
2019-03-24T06:02:00.738Z,9.23
2019-03-24T06:03:00.795Z,9.22
2019-03-24T06:04:00.855Z,9.26
2019-03-24T06:05:00.920Z,9.19
2019-03-24T06:06:00.987Z,9.23
2019-03-24T06:07:01.047Z,9.22
2019-03-24T06:08:01.102Z,9.22
2019-03-24T06:09:01.175Z,9.28
2019-03-24T06:10:01.231Z,9.19
2019-03-24T06:11:01.307Z,9.23
2019-03-24T06:12:01.351Z,9.23
2019-03-24T06:13:01.411Z,9.22
2019-03-24T06:14:01.471Z,9.19
2019-03-24T06:15:01.535Z,9.14
2019-03-24T06:16:01.608Z,9.06
2019-03-24T06:17:01.666Z,9.11
2019-03-24T06:18:01.719Z,9.14
2019-03-24T06:19:01.779Z,9.13
2019-03-24T06:20:01.844Z,9.18
2019-03-24T06:21:01.911Z,9.13
2019-03-24T06:22:01.971Z,9.18
2019-03-24T06:23:02.032Z,9.13
2019-03-24T06:24:02.106Z,9.16
2019-03-24T06:25:02.152Z,9.18
2019-03-24T06:26:02.311Z,9.13
2019-03-24T06:27:02.276Z,9.11
2019-03-24T06:28:02.336Z,9.13
2019-03-24T06:29:02.395Z,9.11
2019-03-24T06:30:02.460Z,9.14
2019-03-24T06:31:02.528Z,9.11
2019-03-24T06:32:02.590Z,9.16
2019-03-24T06:33:02.644Z,9.14
2019-03-24T06:34:02.708Z,9.16
2019-03-24T06:35:02.768Z,9.19
2019-03-24T06:36:02.833Z,9.11
2019-03-24T06:37:02.896Z,9.06
2019-03-24T06:38:02.953Z,9.11
2019-03-24T06:39:03.015Z,9.11
2019-03-24T06:40:03.073Z,9.10
2019-03-24T06:41:03.136Z,9.06
2019-03-24T06:42:03.216Z,9.06
2019-03-24T06:43:03.263Z,9.14
2019-03-24T06:44:03.321Z,9.08
2019-03-24T06:45:03.381Z,9.13
2019-03-24T06:46:03.444Z,9.13
2019-03-24T06:47:03.513Z,9.13
2019-03-24T06:48:03.575Z,9.26
2019-03-24T06:49:03.649Z,9.22
2019-03-24T06:50:03.689Z,9.26
2019-03-24T06:51:03.750Z,9.10
2019-03-24T06:52:03.821Z,9.13
2019-03-24T06:53:03.881Z,9.13
2019-03-24T06:54:03.933Z,9.14
2019-03-24T06:55:03.997Z,9.19
2019-03-24T06:56:04.057Z,9.26
2019-03-24T06:57:04.137Z,9.10
2019-03-24T06:58:04.182Z,9.13
2019-03-24T06:59:04.241Z,9.23
2019-03-24T07:00:04.301Z,9.19
2019-03-24T07:01:04.365Z,9.26
2019-03-24T07:02:04.434Z,9.22
2019-03-24T07:03:04.494Z,9.22
2019-03-24T07:04:04.550Z,9.26
2019-03-24T07:05:04.609Z,9.23
2019-03-24T07:06:04.671Z,9.25
2019-03-24T07:07:04.742Z,9.39
2019-03-24T07:08:04.802Z,9.37
2019-03-24T07:09:04.858Z,9.46
2019-03-24T07:10:04.925Z,9.41
2019-03-24T07:11:10.530Z,9.43
2019-03-24T07:12:05.045Z,9.47
2019-03-24T07:13:05.114Z,9.46
2019-03-24T07:14:05.166Z,9.50
2019-03-24T07:15:05.226Z,9.58
2019-03-24T07:16:05.287Z,9.55
2019-03-24T07:17:05.460Z,9.51
2019-03-24T07:18:08.778Z,9.46
2019-03-24T07:19:05.475Z,9.44
2019-03-24T07:20:05.534Z,9.51
2019-03-24T07:21:05.603Z,9.56
2019-03-24T07:22:07.307Z,9.51
2019-03-24T07:23:05.729Z,9.56
2019-03-24T07:24:05.786Z,9.54
2019-03-24T07:25:05.853Z,9.55
2019-03-24T07:26:05.907Z,9.58
2019-03-24T07:27:05.977Z,9.59
2019-03-24T07:28:06.035Z,9.55
2019-03-24T07:29:06.091Z,9.55
2019-03-24T07:30:06.151Z,9.55
2019-03-24T07:31:06.218Z,9.61
2019-03-24T07:32:06.379Z,9.51
2019-03-24T07:33:06.339Z,9.54
2019-03-24T07:34:06.400Z,9.51
2019-03-24T07:35:06.464Z,9.50
2019-03-24T07:36:06.523Z,9.56
2019-03-24T07:37:06.591Z,9.55
2019-03-24T07:38:06.655Z,9.58
2019-03-24T07:39:06.708Z,9.64
2019-03-24T07:40:06.772Z,9.61
2019-03-24T07:41:06.833Z,9.72
2019-03-24T07:42:06.905Z,9.73
2019-03-24T07:43:06.967Z,9.74
2019-03-24T07:44:07.023Z,9.79
2019-03-24T07:45:07.080Z,9.69
2019-03-24T07:46:07.144Z,9.74
2019-03-24T07:47:07.224Z,9.77
2019-03-24T07:48:07.264Z,9.83
2019-03-24T07:49:07.328Z,9.91
2019-03-24T07:50:07.389Z,9.91
2019-03-24T07:51:07.452Z,10.02
2019-03-24T07:52:07.524Z,10.02
2019-03-24T07:53:07.585Z,10.19
2019-03-24T07:54:07.641Z,10.12
2019-03-24T07:55:07.701Z,10.12
2019-03-24T07:56:07.760Z,10.19
2019-03-24T07:57:07.837Z,10.23
2019-03-24T07:58:07.889Z,10.38
2019-03-24T07:59:07.951Z,10.37
2019-03-24T08:00:08.013Z,10.49
2019-03-24T08:01:08.073Z,10.63
2019-03-24T08:02:08.240Z,10.68
2019-03-24T08:03:08.197Z,10.81
2019-03-24T08:04:08.261Z,10.74
2019-03-24T08:05:08.321Z,10.64
2019-03-24T08:06:08.386Z,10.63
2019-03-24T08:07:08.457Z,10.81
2019-03-24T08:08:08.529Z,10.76
2019-03-24T08:09:08.573Z,10.86
2019-03-24T08:10:08.633Z,10.97
2019-03-24T08:11:08.701Z,11.07
2019-03-24T08:12:08.766Z,11.12
2019-03-24T08:13:08.837Z,11.17
2019-03-24T08:14:08.887Z,11.19
2019-03-24T08:15:08.950Z,11.30
2019-03-24T08:16:09.016Z,11.40
2019-03-24T08:17:09.099Z,11.47
2019-03-24T08:18:09.142Z,11.47
2019-03-24T08:19:09.200Z,11.52
2019-03-24T08:20:09.261Z,11.75
2019-03-24T08:21:09.330Z,11.78
2019-03-24T08:22:09.394Z,11.87
2019-03-24T08:23:09.458Z,12.04
2019-03-24T08:24:09.519Z,12.15
2019-03-24T08:25:09.578Z,12.21
2019-03-24T08:26:09.638Z,12.35
2019-03-24T08:27:09.716Z,12.45
2019-03-24T08:28:09.778Z,12.53
2019-03-24T08:29:09.831Z,12.45
2019-03-24T08:30:09.894Z,12.57
2019-03-24T08:31:09.958Z,12.60
2019-03-24T08:32:10.026Z,12.65
2019-03-24T08:33:10.102Z,12.70
2019-03-24T08:34:10.148Z,12.76
2019-03-24T08:35:10.211Z,12.91
2019-03-24T08:36:10.275Z,13.15
2019-03-24T08:37:10.355Z,13.33
2019-03-24T08:38:10.422Z,13.38
2019-03-24T08:39:10.467Z,13.46
2019-03-24T08:40:10.531Z,13.60
2019-03-24T08:41:10.595Z,13.72
2019-03-24T08:42:10.668Z,13.74
2019-03-24T08:43:10.742Z,13.93
2019-03-24T08:44:10.787Z,14.03
2019-03-24T08:45:10.851Z,13.86
2019-03-24T08:46:10.915Z,13.92
2019-03-24T08:47:10.987Z,14.03
2019-03-24T08:48:11.055Z,14.22
2019-03-24T08:49:11.108Z,14.07
2019-03-24T08:50:11.172Z,14.17
2019-03-24T08:51:11.243Z,14.20
2019-03-24T08:52:11.304Z,14.20
2019-03-24T08:53:11.376Z,14.23
2019-03-24T08:54:11.431Z,14.20
2019-03-24T08:55:11.495Z,14.03
2019-03-24T08:56:11.559Z,13.75
2019-03-24T08:57:11.650Z,13.83
2019-03-24T08:58:11.696Z,13.86
2019-03-24T08:59:11.764Z,14.04
2019-03-24T09:00:11.820Z,14.00
2019-03-24T09:01:11.886Z,14.04
2019-03-24T09:02:11.952Z,13.97
2019-03-24T09:03:12.024Z,14.11
2019-03-24T09:04:12.084Z,14.12
2019-03-24T09:05:12.145Z,14.25
2019-03-24T09:06:12.208Z,14.55
2019-03-24T09:07:12.272Z,14.63
2019-03-24T09:08:12.437Z,14.66
2019-03-24T09:09:12.408Z,14.63
2019-03-24T09:10:12.468Z,14.72
2019-03-24T09:11:12.540Z,14.58
2019-03-24T09:12:12.605Z,14.48
2019-03-24T09:13:12.672Z,14.41
2019-03-24T09:14:12.736Z,14.37
2019-03-24T09:15:12.797Z,14.50
2019-03-24T09:16:12.864Z,14.63
2019-03-24T09:17:12.925Z,14.77
2019-03-24T09:18:12.998Z,14.70
2019-03-24T09:19:13.085Z,14.58
2019-03-24T09:20:13.126Z,14.72
2019-03-24T09:21:13.184Z,14.73
2019-03-24T09:22:13.258Z,14.73
2019-03-24T09:23:13.317Z,14.79
2019-03-24T09:24:13.433Z,14.73
2019-03-24T09:25:13.445Z,14.92
2019-03-24T09:26:13.514Z,14.91
2019-03-24T09:27:13.582Z,14.79
2019-03-24T09:28:13.641Z,14.85
2019-03-24T09:29:13.722Z,14.88
2019-03-24T09:30:13.782Z,14.94
2019-03-24T09:31:13.854Z,15.36
2019-03-24T09:32:13.916Z,15.47
2019-03-24T09:33:13.971Z,15.47
2019-03-24T09:34:14.042Z,15.51
2019-03-24T09:35:14.113Z,15.44
2019-03-24T09:36:14.167Z,15.28
2019-03-24T09:37:14.234Z,15.21
2019-03-24T09:38:14.298Z,15.21
2019-03-24T09:39:14.460Z,15.25
2019-03-24T09:40:14.434Z,15.24
2019-03-24T09:41:14.493Z,15.22
2019-03-24T09:42:14.578Z,14.88
2019-03-24T09:43:14.628Z,14.88
2019-03-24T09:44:14.694Z,14.86
2019-03-24T09:45:14.762Z,14.94
2019-03-24T09:46:14.822Z,15.00
2019-03-24T09:47:14.898Z,14.97
2019-03-24T09:48:14.959Z,14.88
2019-03-24T09:49:15.026Z,14.26
2019-03-24T09:50:15.090Z,14.36
2019-03-24T09:51:15.150Z,14.20
2019-03-24T09:52:15.214Z,14.26
2019-03-24T09:53:15.286Z,14.32
2019-03-24T09:54:15.584Z,14.44
2019-03-24T09:55:15.411Z,14.17
2019-03-24T09:56:15.482Z,14.40
2019-03-24T09:57:15.544Z,14.48
2019-03-24T09:58:15.606Z,14.63
2019-03-24T09:59:15.683Z,14.68
2019-03-24T10:00:15.743Z,14.50
2019-03-24T10:01:15.803Z,14.33
2019-03-24T10:02:15.872Z,14.22
2019-03-24T10:03:15.935Z,14.32
2019-03-24T10:04:16.008Z,14.32
2019-03-24T10:05:16.072Z,14.50
2019-03-24T10:06:16.136Z,14.68
2019-03-24T10:07:16.195Z,14.66
2019-03-24T10:08:16.259Z,14.53
2019-03-24T10:09:16.327Z,14.73
2019-03-24T10:10:16.411Z,14.59
2019-03-24T10:11:16.462Z,14.63
2019-03-24T10:12:16.523Z,14.66
2019-03-24T10:13:16.591Z,14.78
2019-03-24T10:14:16.656Z,14.81
2019-03-24T10:15:16.736Z,14.89
2019-03-24T10:16:16.789Z,15.10
2019-03-24T10:17:16.852Z,15.36
2019-03-24T10:18:16.911Z,15.64
2019-03-24T10:19:16.980Z,15.86
2019-03-24T10:20:17.051Z,16.24
2019-03-24T10:21:17.119Z,16.51
2019-03-24T10:22:17.178Z,16.96
2019-03-24T10:23:17.239Z,17.19
2019-03-24T10:24:17.304Z,17.45
2019-03-24T10:25:17.380Z,17.72
2019-03-24T10:26:17.444Z,17.38
2019-03-24T10:27:17.506Z,17.11
2019-03-24T10:28:17.568Z,16.36
2019-03-24T10:29:17.632Z,16.38
2019-03-24T10:30:17.716Z,16.58
2019-03-24T10:31:17.774Z,16.83
2019-03-24T10:32:17.833Z,17.06
2019-03-24T10:33:17.899Z,16.91
2019-03-24T10:34:17.965Z,16.99
2019-03-24T10:35:18.045Z,16.96
2019-03-24T10:36:18.097Z,17.36
2019-03-24T10:37:18.161Z,17.52
2019-03-24T10:38:18.229Z,17.95
2019-03-24T10:39:18.292Z,18.18
2019-03-24T10:40:28.110Z,18.22
2019-03-24T10:41:18.430Z,18.19
2019-03-24T10:42:18.499Z,18.35
2019-03-24T10:43:18.557Z,18.52
2019-03-24T10:44:18.629Z,17.97
2019-03-24T10:45:18.697Z,17.05
2019-03-24T10:46:18.767Z,16.99
2019-03-24T10:47:18.832Z,17.15
2019-03-24T10:48:18.889Z,16.89
2019-03-24T10:49:24.747Z,16.84
2019-03-24T10:50:19.029Z,17.06
2019-03-24T10:51:19.097Z,17.15
2019-03-24T10:52:19.161Z,17.34
2019-03-24T10:53:19.221Z,17.46
2019-03-24T10:54:19.295Z,17.52
2019-03-24T10:55:19.364Z,17.60
2019-03-24T10:56:19.436Z,17.39
2019-03-24T10:57:19.490Z,17.52
2019-03-24T10:58:19.554Z,17.72
2019-03-24T10:59:19.626Z,17.98
2019-03-24T11:00:19.694Z,17.76
2019-03-24T11:01:19.762Z,17.38
2019-03-24T11:02:19.827Z,17.44
2019-03-24T11:03:19.890Z,17.27
2019-03-24T11:04:19.955Z,17.11
2019-03-24T11:05:20.027Z,17.06
2019-03-24T11:06:20.094Z,16.74
2019-03-24T11:07:20.158Z,16.71
2019-03-24T11:08:20.226Z,16.54
2019-03-24T11:09:20.288Z,16.53
2019-03-24T11:10:20.362Z,16.57
2019-03-24T11:11:20.443Z,16.53
2019-03-24T11:12:20.487Z,16.42
2019-03-24T11:13:20.555Z,16.64
2019-03-24T11:14:20.619Z,16.66
2019-03-24T11:15:20.699Z,16.60
2019-03-24T11:16:20.760Z,16.53
2019-03-24T11:17:20.834Z,16.65
2019-03-24T11:18:20.887Z,16.35
2019-03-24T11:19:20.951Z,16.51
2019-03-24T11:20:21.015Z,16.54
2019-03-24T11:21:21.415Z,16.71
2019-03-24T11:22:21.155Z,16.75
2019-03-24T11:23:21.224Z,16.94
2019-03-24T11:24:21.372Z,16.91
2019-03-24T11:25:21.350Z,16.93
2019-03-24T11:26:21.415Z,17.06
2019-03-24T11:27:21.496Z,17.22
2019-03-24T11:28:21.548Z,17.48
2019-03-24T11:29:21.616Z,17.48
2019-03-24T11:30:21.688Z,17.29
2019-03-24T11:31:21.747Z,17.39
2019-03-24T11:32:21.823Z,17.52
2019-03-24T11:33:21.892Z,17.52
2019-03-24T11:34:21.948Z,17.67
2019-03-24T11:35:22.016Z,17.67
2019-03-24T11:36:22.079Z,17.60
2019-03-24T11:37:22.250Z,17.67
2019-03-24T11:38:22.225Z,17.74
2019-03-24T11:39:22.280Z,17.51
2019-03-24T11:40:22.350Z,17.44
2019-03-24T11:41:22.416Z,17.56
2019-03-24T11:42:22.488Z,17.38
2019-03-24T11:43:22.556Z,17.33
2019-03-24T11:44:22.616Z,17.34
2019-03-24T11:45:22.680Z,17.39
2019-03-24T11:46:22.748Z,17.30
2019-03-24T11:47:26.819Z,17.34
2019-03-24T11:48:22.891Z,17.45
2019-03-24T11:49:22.958Z,17.65
2019-03-24T11:50:23.017Z,17.72
2019-03-24T11:51:23.086Z,17.92
2019-03-24T11:52:23.196Z,18.08
2019-03-24T11:53:23.218Z,18.20
2019-03-24T11:54:23.281Z,18.33
2019-03-24T11:55:23.348Z,17.90
2019-03-24T11:56:23.425Z,17.83
2019-03-24T11:57:23.489Z,17.41
2019-03-24T11:58:23.566Z,17.34
2019-03-24T11:59:23.643Z,17.36
2019-03-24T12:00:23.685Z,17.45
2019-03-24T12:01:23.753Z,17.23
2019-03-24T12:02:23.825Z,17.20
2019-03-24T12:03:25.428Z,17.14
2019-03-24T12:04:23.954Z,17.08
2019-03-24T12:05:24.021Z,17.09
2019-03-24T12:06:24.153Z,17.20
2019-03-24T12:07:24.178Z,17.20
2019-03-24T12:08:24.222Z,17.09
2019-03-24T12:09:24.306Z,17.27
2019-03-24T12:10:24.354Z,17.29
2019-03-24T12:11:24.432Z,17.20
2019-03-24T12:12:24.745Z,17.33
2019-03-24T12:13:24.698Z,17.42
2019-03-24T12:14:24.635Z,17.46
2019-03-24T12:15:24.778Z,17.49
2019-03-24T12:16:24.867Z,17.70
2019-03-24T12:17:24.922Z,17.44
2019-03-24T12:18:25.343Z,17.46
2019-03-24T12:19:25.043Z,17.46
2019-03-24T12:20:25.247Z,17.52
2019-03-24T12:21:25.090Z,17.44
2019-03-24T12:22:25.210Z,17.48
2019-03-24T12:23:25.324Z,17.42
2019-03-24T12:24:25.554Z,17.46
2019-03-24T12:25:25.434Z,17.42
2019-03-24T12:26:25.423Z,17.08
2019-03-24T12:27:25.487Z,16.94
2019-03-24T12:28:25.558Z,16.93
2019-03-24T12:29:25.630Z,16.72
2019-03-24T12:30:25.698Z,16.68
2019-03-24T12:31:25.767Z,16.60
2019-03-24T12:32:25.864Z,16.26
2019-03-24T12:33:25.890Z,16.24
2019-03-24T12:34:25.964Z,16.04
2019-03-24T12:35:26.031Z,15.75
2019-03-24T12:36:26.091Z,15.98
2019-03-24T12:37:26.156Z,16.00
2019-03-24T12:38:26.223Z,15.94
2019-03-24T12:39:26.299Z,16.05
2019-03-24T12:40:26.359Z,16.02
2019-03-24T12:41:26.427Z,16.17
2019-03-24T12:42:26.490Z,16.31
2019-03-24T12:43:26.555Z,16.49
2019-03-24T12:44:26.671Z,16.72
2019-03-24T12:45:26.691Z,16.76
2019-03-24T12:46:26.751Z,16.83
2019-03-24T12:47:26.819Z,16.68
2019-03-24T12:48:26.914Z,16.78
2019-03-24T12:49:26.959Z,16.65
2019-03-24T12:50:31.743Z,16.71
2019-03-24T12:51:27.083Z,16.65
2019-03-24T12:52:27.151Z,16.69
2019-03-24T12:53:27.215Z,16.56
2019-03-24T12:54:27.284Z,16.47
2019-03-24T12:55:27.648Z,16.68
2019-03-24T12:56:27.412Z,16.71
2019-03-24T12:57:27.476Z,16.66
2019-03-24T12:58:27.548Z,16.68
2019-03-24T12:59:27.612Z,16.90
2019-03-24T13:00:27.683Z,16.90
2019-03-24T13:01:27.752Z,16.84
2019-03-24T13:02:27.809Z,16.96
2019-03-24T13:03:27.876Z,16.68